sensor_id;sensor_type;location;lat;lon;timestamp;pressure;altitude;pressure_sealevel;temperature;humidity
71643;BME280;59438;45.014;39.006;2023-04-01T00:01:59;101389.06;;;2.90;67.65
71643;BME280;59438;45.014;39.006;2023-04-01T00:04:26;101386.47;;;2.89;67.93
71643;BME280;59438;45.014;39.006;2023-04-01T00:06:52;101370.84;;;2.84;67.45
71643;BME280;59438;45.014;39.006;2023-04-01T00:09:19;101385.63;;;2.91;67.31
71643;BME280;59438;45.014;39.006;2023-04-01T00:11:45;101393.38;;;2.90;67.67
71643;BME280;59438;45.014;39.006;2023-04-01T00:14:12;101378.69;;;2.87;67.41
71643;BME280;59438;45.014;39.006;2023-04-01T00:16:40;101392.50;;;2.86;67.57
71643;BME280;59438;45.014;39.006;2023-04-01T00:19:06;101377.81;;;2.85;67.45
71643;BME280;59438;45.014;39.006;2023-04-01T00:21:33;101381.25;;;2.82;67.69
71643;BME280;59438;45.014;39.006;2023-04-01T00:23:59;101379.53;;;2.83;67.93
71643;BME280;59438;45.014;39.006;2023-04-01T00:26:26;101389.03;;;2.82;67.50
71643;BME280;59438;45.014;39.006;2023-04-01T00:28:52;101379.53;;;2.83;67.80
71643;BME280;59438;45.014;39.006;2023-04-01T00:31:18;101379.53;;;2.83;67.57
71643;BME280;59438;45.014;39.006;2023-04-01T00:33:46;101363.88;;;2.69;67.65
71643;BME280;59438;45.014;39.006;2023-04-01T00:36:14;101372.53;;;2.76;67.94
71643;BME280;59438;45.014;39.006;2023-04-01T00:38:41;101381.25;;;2.82;67.79
71643;BME280;59438;45.014;39.006;2023-04-01T00:41:08;101385.56;;;2.83;67.62
71643;BME280;59438;45.014;39.006;2023-04-01T00:43:35;101386.44;;;2.84;67.88
71643;BME280;59438;45.014;39.006;2023-04-01T00:46:01;101381.25;;;2.82;67.63
71643;BME280;59438;45.014;39.006;2023-04-01T00:48:30;101350.00;;;2.64;68.02
71643;BME280;59438;45.014;39.006;2023-04-01T00:51:01;101378.66;;;2.86;68.15
71643;BME280;59438;45.014;39.006;2023-04-01T00:53:30;101368.19;;;2.72;67.67
71643;BME280;59438;45.014;39.006;2023-04-01T00:56:00;101373.41;;;2.78;68.19
71643;BME280;59438;45.014;39.006;2023-04-01T00:58:32;101382.06;;;2.77;68.23
71643;BME280;59438;45.014;39.006;2023-04-01T01:00:59;101366.44;;;2.68;67.76
71643;BME280;59438;45.014;39.006;2023-04-01T01:03:26;101380.31;;;2.76;67.73
71643;BME280;59438;45.014;39.006;2023-04-01T01:06:06;101379.44;;;2.74;68.51
71643;BME280;59438;45.014;39.006;2023-04-01T01:11:25;101388.09;;;2.71;68.59
71643;BME280;59438;45.014;39.006;2023-04-01T01:14:01;101348.19;;;2.48;68.02
71643;BME280;59438;45.014;39.006;2023-04-01T01:16:36;101382.91;;;2.68;68.60
71643;BME280;59438;45.014;39.006;2023-04-01T01:19:17;101367.25;;;2.54;68.82
71643;BME280;59438;45.014;39.006;2023-04-01T01:22:05;101383.72;;;2.66;69.20
71643;BME280;59438;45.014;39.006;2023-04-01T01:24:43;101383.72;;;2.66;69.06
71643;BME280;59438;45.014;39.006;2023-04-01T01:27:16;101386.31;;;2.62;68.15
71643;BME280;59438;45.014;39.006;2023-04-01T01:30:14;101351.66;;;2.50;69.52
71643;BME280;59438;45.014;39.006;2023-04-01T01:32:56;101383.75;;;2.69;69.21
71643;BME280;59438;45.014;39.006;2023-04-01T01:35:31;101385.47;;;2.70;68.70
71643;BME280;59438;45.014;39.006;2023-04-01T01:38:01;101385.50;;;2.68;68.28
71643;BME280;59438;45.014;39.006;2023-04-01T01:40:31;101375.06;;;2.65;68.32
71643;BME280;59438;45.014;39.006;2023-04-01T01:43:02;101388.09;;;2.68;68.62
71643;BME280;59438;45.014;39.006;2023-04-01T01:45:33;101380.31;;;2.73;68.04
71643;BME280;59438;45.014;39.006;2023-04-01T01:48:02;101387.25;;;2.77;68.31
71643;BME280;59438;45.014;39.006;2023-04-01T01:50:30;101400.25;;;2.77;68.54
71643;BME280;59438;45.014;39.006;2023-04-01T01:53:02;101400.25;;;2.78;68.83
71643;BME280;59438;45.014;39.006;2023-04-01T01:55:30;101395.94;;;2.79;68.76
71643;BME280;59438;45.014;39.006;2023-04-01T01:57:59;101400.25;;;2.78;68.21
71643;BME280;59438;45.014;39.006;2023-04-01T02:00:27;101401.13;;;2.79;68.54
71643;BME280;59438;45.014;39.006;2023-04-01T02:02:54;101395.94;;;2.79;68.06
71643;BME280;59438;45.014;39.006;2023-04-01T02:05:24;101388.09;;;2.76;68.35
71643;BME280;59438;45.014;39.006;2023-04-01T02:07:57;101394.22;;;2.82;68.23
71643;BME280;59438;45.014;39.006;2023-04-01T02:10:27;101375.13;;;2.73;67.88
71643;BME280;59438;45.014;39.006;2023-04-01T02:12:57;101401.16;;;2.87;68.41
71643;BME280;59438;45.014;39.006;2023-04-01T02:15:27;101389.88;;;2.81;68.43
71643;BME280;59438;45.014;39.006;2023-04-01T02:17:55;101356.09;;;2.71;68.15
71643;BME280;59438;45.014;39.006;2023-04-01T02:20:22;101391.69;;;2.95;67.81
71643;BME280;59438;45.014;39.006;2023-04-01T02:22:51;101396.00;;;2.94;68.14
71643;BME280;59438;45.014;39.006;2023-04-01T02:25:23;101401.22;;;2.97;68.08
71643;BME280;59438;45.014;39.006;2023-04-01T02:27:51;101377.81;;;2.88;67.98
71643;BME280;59438;45.014;39.006;2023-04-01T02:30:19;101373.44;;;2.84;67.82
71643;BME280;59438;45.014;39.006;2023-04-01T02:32:46;101384.75;;;2.89;67.71
71643;BME280;59438;45.014;39.006;2023-04-01T02:35:15;101396.94;;;3.01;67.79
71643;BME280;59438;45.014;39.006;2023-04-01T02:37:43;101406.44;;;3.02;67.70
71643;BME280;59438;45.014;39.006;2023-04-01T02:40:12;101377.78;;;2.80;67.99
71643;BME280;59438;45.014;39.006;2023-04-01T02:42:41;101409.88;;;2.99;67.85
71643;BME280;59438;45.014;39.006;2023-04-01T02:45:09;101412.47;;;2.99;67.63
71643;BME280;59438;45.014;39.006;2023-04-01T02:47:35;101413.34;;;3.00;67.72
71643;BME280;59438;45.014;39.006;2023-04-01T02:50:02;101414.22;;;2.99;67.72
71643;BME280;59438;45.014;39.006;2023-04-01T02:52:29;101395.97;;;2.85;67.80
71643;BME280;59438;45.014;39.006;2023-04-01T02:54:56;101411.56;;;2.94;67.58
71643;BME280;59438;45.014;39.006;2023-04-01T02:57:23;101415.06;;;2.98;67.48
71643;BME280;59438;45.014;39.006;2023-04-01T02:59:51;101422.81;;;2.93;67.93
71643;BME280;59438;45.014;39.006;2023-04-01T03:02:17;101427.19;;;2.99;67.93
71643;BME280;59438;45.014;39.006;2023-04-01T03:04:43;101385.56;;;2.80;67.60
71643;BME280;59438;45.014;39.006;2023-04-01T03:07:10;101417.66;;;2.99;67.60
71643;BME280;59438;45.014;39.006;2023-04-01T03:09:37;101401.19;;;2.94;67.36
71643;BME280;59438;45.014;39.006;2023-04-01T03:12:03;101420.31;;;3.07;67.47
71643;BME280;59438;45.014;39.006;2023-04-01T03:14:29;101416.00;;;3.09;67.33
71643;BME280;59438;45.014;39.006;2023-04-01T03:16:57;101414.28;;;3.11;67.43
71643;BME280;59438;45.014;39.006;2023-04-01T03:19:24;101416.00;;;3.12;67.09
71643;BME280;59438;45.014;39.006;2023-04-01T03:21:50;101420.34;;;3.15;66.97
71643;BME280;59438;45.014;39.006;2023-04-01T03:24:16;101421.22;;;3.15;66.99
71643;BME280;59438;45.014;39.006;2023-04-01T03:26:43;101415.13;;;3.15;66.87
71643;BME280;59438;45.014;39.006;2023-04-01T03:29:09;101424.69;;;3.17;66.84
71643;BME280;59438;45.014;39.006;2023-04-01T03:31:35;101423.81;;;3.18;66.72
71643;BME280;59438;45.014;39.006;2023-04-01T03:34:03;101429.00;;;3.18;66.62
71643;BME280;59438;45.014;39.006;2023-04-01T03:36:29;101425.56;;;3.19;66.69
71643;BME280;59438;45.014;39.006;2023-04-01T03:38:56;101422.13;;;3.22;66.35
71643;BME280;59438;45.014;39.006;2023-04-01T03:41:22;101423.00;;;3.24;66.52
71643;BME280;59438;45.014;39.006;2023-04-01T03:43:48;101417.81;;;3.26;66.13
71643;BME280;59438;45.014;39.006;2023-04-01T03:46:17;101424.75;;;3.28;66.48
71643;BME280;59438;45.014;39.006;2023-04-01T03:48:43;101417.81;;;3.30;66.34
71643;BME280;59438;45.014;39.006;2023-04-01T03:51:11;101412.66;;;3.32;66.33
71643;BME280;59438;45.014;39.006;2023-04-01T03:53:38;101427.34;;;3.37;66.10
71643;BME280;59438;45.014;39.006;2023-04-01T03:56:05;101418.72;;;3.41;66.09
71643;BME280;59438;45.014;39.006;2023-04-01T03:58:31;101425.69;;;3.47;65.78
71643;BME280;59438;45.014;39.006;2023-04-01T04:00:58;101427.44;;;3.53;65.81
71643;BME280;59438;45.014;39.006;2023-04-01T04:03:24;101416.22;;;3.58;65.84
71643;BME280;59438;45.014;39.006;2023-04-01T04:05:51;101418.81;;;3.66;65.57
71643;BME280;59438;45.014;39.006;2023-04-01T04:08:18;101419.72;;;3.73;65.27
71643;BME280;59438;45.014;39.006;2023-04-01T04:10:45;101418.00;;;3.79;65.36
71643;BME280;59438;45.014;39.006;2023-04-01T04:13:11;101424.06;;;3.88;65.18
71643;BME280;59438;45.014;39.006;2023-04-01T04:15:38;101408.47;;;3.88;65.20
71643;BME280;59438;45.014;39.006;2023-04-01T04:18:04;101415.44;;;3.98;65.35
71643;BME280;59438;45.014;39.006;2023-04-01T04:20:31;101427.56;;;4.10;65.01
71643;BME280;59438;45.014;39.006;2023-04-01T04:22:57;101425.84;;;4.16;64.64
71643;BME280;59438;45.014;39.006;2023-04-01T04:25:25;101414.56;;;4.25;64.26
71643;BME280;59438;45.014;39.006;2023-04-01T04:27:51;101416.31;;;4.31;64.38
71643;BME280;59438;45.014;39.006;2023-04-01T04:30:18;101419.78;;;4.37;64.12
71643;BME280;59438;45.014;39.006;2023-04-01T04:32:44;101423.25;;;4.46;64.15
71643;BME280;59438;45.014;39.006;2023-04-01T04:35:10;101416.31;;;4.52;63.86
71643;BME280;59438;45.014;39.006;2023-04-01T04:37:36;101418.03;;;4.58;63.78
71643;BME280;59438;45.014;39.006;2023-04-01T04:40:03;101417.16;;;4.67;63.84
71643;BME280;59438;45.014;39.006;2023-04-01T04:42:31;101419.75;;;4.76;63.39
71643;BME280;59438;45.014;39.006;2023-04-01T04:44:58;101420.63;;;4.84;63.43
71643;BME280;59438;45.014;39.006;2023-04-01T04:47:24;101418.84;;;4.95;63.21
71643;BME280;59438;45.014;39.006;2023-04-01T04:49:50;101418.81;;;5.03;62.94
71643;BME280;59438;45.014;39.006;2023-04-01T04:52:17;101412.72;;;5.12;62.71
71643;BME280;59438;45.014;39.006;2023-04-01T04:54:43;101420.50;;;5.24;63.08
71643;BME280;59438;45.014;39.006;2023-04-01T04:57:09;101410.03;;;5.33;62.54
71643;BME280;59438;45.014;39.006;2023-04-01T04:59:37;101418.66;;;5.43;62.08
71643;BME280;59438;45.014;39.006;2023-04-01T05:02:03;101401.25;;;5.50;62.53
71643;BME280;59438;45.014;39.006;2023-04-01T05:04:30;101415.97;;;5.61;62.19
71643;BME280;59438;45.014;39.006;2023-04-01T05:06:59;101409.84;;;5.72;62.41
71643;BME280;59438;45.014;39.006;2023-04-01T05:09:26;101411.53;;;5.83;62.33
71643;BME280;59438;45.014;39.006;2023-04-01T05:11:52;101421.06;;;5.95;61.66
71643;BME280;59438;45.014;39.006;2023-04-01T05:14:19;101382.81;;;5.90;61.43
71643;BME280;59438;45.014;39.006;2023-04-01T05:16:47;101409.56;;;6.19;60.73
71643;BME280;59438;45.014;39.006;2023-04-01T05:19:13;101406.00;;;6.30;61.49
71643;BME280;59438;45.014;39.006;2023-04-01T05:21:39;101405.94;;;6.39;61.54
71643;BME280;59438;45.014;39.006;2023-04-01T05:24:08;101400.63;;;6.48;60.30
71643;BME280;59438;45.014;39.006;2023-04-01T05:26:34;101376.31;;;6.43;61.07
71643;BME280;59438;45.014;39.006;2023-04-01T05:29:01;101397.00;;;6.64;60.98
71643;BME280;59438;45.014;39.006;2023-04-01T05:31:27;101393.47;;;6.70;61.26
71643;BME280;59438;45.014;39.006;2023-04-01T05:33:55;101400.34;;;6.77;59.81
71643;BME280;59438;45.014;39.006;2023-04-01T05:36:21;101385.56;;;6.76;60.17
71643;BME280;59438;45.014;39.006;2023-04-01T05:38:48;101396.75;;;6.89;60.63
71643;BME280;59438;45.014;39.006;2023-04-01T05:41:15;101392.34;;;6.93;60.43
71643;BME280;59438;45.014;39.006;2023-04-01T05:43:42;101389.72;;;6.94;59.80
71643;BME280;59438;45.014;39.006;2023-04-01T05:46:08;101390.53;;;7.01;60.66
71643;BME280;59438;45.014;39.006;2023-04-01T05:48:35;101389.63;;;7.03;60.32
71643;BME280;59438;45.014;39.006;2023-04-01T05:51:03;101399.06;;;7.15;59.77
71643;BME280;59438;45.014;39.006;2023-04-01T05:53:30;101388.56;;;7.20;59.89
71643;BME280;59438;45.014;39.006;2023-04-01T05:55:56;101391.94;;;7.26;59.62
71643;BME280;59438;45.014;39.006;2023-04-01T05:58:22;101396.25;;;7.32;59.91
71643;BME280;59438;45.014;39.006;2023-04-01T06:00:49;101394.41;;;7.40;59.95
71643;BME280;59438;45.014;39.006;2023-04-01T06:03:15;101384.72;;;7.49;60.07
71643;BME280;59438;45.014;39.006;2023-04-01T06:05:42;101382.09;;;7.49;59.09
71643;BME280;59438;45.014;39.006;2023-04-01T06:08:12;101359.47;;;7.46;58.58
71643;BME280;59438;45.014;39.006;2023-04-01T06:10:50;101376.59;;;7.67;58.49
71643;BME280;59438;45.014;39.006;2023-04-01T06:13:25;101373.06;;;7.73;58.00
71643;BME280;59438;45.014;39.006;2023-04-01T06:16:03;101386.75;;;7.88;57.87
71643;BME280;59438;45.014;39.006;2023-04-01T06:18:45;101370.94;;;7.95;57.40
71643;BME280;59438;45.014;39.006;2023-04-01T06:21:31;101358.72;;;7.97;57.41
71643;BME280;59438;45.014;39.006;2023-04-01T06:24:15;101343.00;;;7.98;57.47
71643;BME280;59438;45.014;39.006;2023-04-01T06:26:51;101361.00;;;8.18;57.11
71643;BME280;59438;45.014;39.006;2023-04-01T06:29:43;101362.56;;;8.30;56.00
71643;BME280;59438;45.014;39.006;2023-04-01T06:32:46;101364.19;;;8.36;57.15
71643;BME280;59438;45.014;39.006;2023-04-01T06:35:36;101355.44;;;8.38;57.24
71643;BME280;59438;45.014;39.006;2023-04-01T06:38:28;101357.78;;;8.55;57.40
71643;BME280;59438;45.014;39.006;2023-04-01T06:41:43;101344.56;;;8.61;57.06
71643;BME280;59438;45.014;39.006;2023-04-01T06:44:22;101356.28;;;8.87;56.27
71643;BME280;59438;45.014;39.006;2023-04-01T06:46:55;101359.97;;;9.20;56.09
71643;BME280;59438;45.014;39.006;2023-04-01T06:49:34;101357.59;;;9.52;55.19
71643;BME280;59438;45.014;39.006;2023-04-01T06:52:11;101342.16;;;9.75;54.89
71643;BME280;59438;45.014;39.006;2023-04-01T06:54:45;101353.84;;;9.99;54.83
71643;BME280;59438;45.014;39.006;2023-04-01T06:57:22;101346.34;;;10.20;54.83
71643;BME280;59438;45.014;39.006;2023-04-01T06:59:51;101329.88;;;10.80;56.42
71643;BME280;59438;45.014;39.006;2023-04-01T07:02:24;101347.03;;;12.09;52.81
71643;BME280;59438;45.014;39.006;2023-04-01T07:04:53;101315.00;;;12.72;50.75
71643;BME280;59438;45.014;39.006;2023-04-01T07:07:26;101337.34;;;12.87;49.86
71643;BME280;59438;45.014;39.006;2023-04-01T07:09:56;101326.97;;;12.57;50.66
71643;BME280;59438;45.014;39.006;2023-04-01T07:12:35;101340.13;;;12.57;49.76
71643;BME280;59438;45.014;39.006;2023-04-01T07:15:09;101341.34;;;12.97;50.29
71643;BME280;59438;45.014;39.006;2023-04-01T07:17:40;101327.03;;;13.50;51.22
71643;BME280;59438;45.014;39.006;2023-04-01T07:20:13;101325.63;;;13.85;48.15
71643;BME280;59438;45.014;39.006;2023-04-01T07:22:44;101323.53;;;13.94;48.68
71643;BME280;59438;45.014;39.006;2023-04-01T07:25:13;101309.13;;;13.80;48.41
71643;BME280;59438;45.014;39.006;2023-04-01T07:27:43;101330.44;;;13.76;47.34
71643;BME280;59438;45.014;39.006;2023-04-01T07:30:14;101321.47;;;13.58;46.88
71643;BME280;59438;45.014;39.006;2023-04-01T07:32:44;101324.44;;;13.26;48.39
71643;BME280;59438;45.014;39.006;2023-04-01T07:35:18;101324.28;;;13.07;47.76
71643;BME280;59438;45.014;39.006;2023-04-01T07:37:59;101331.72;;;12.96;46.43
71643;BME280;59438;45.014;39.006;2023-04-01T07:40:37;101309.50;;;12.78;47.27
71643;BME280;59438;45.014;39.006;2023-04-01T07:43:17;101313.38;;;12.68;47.66
71643;BME280;59438;45.014;39.006;2023-04-01T07:45:55;101299.94;;;12.52;47.28
71643;BME280;59438;45.014;39.006;2023-04-01T07:48:30;101309.81;;;12.45;48.03
71643;BME280;59438;45.014;39.006;2023-04-01T07:51:02;101284.97;;;12.27;48.40
71643;BME280;59438;45.014;39.006;2023-04-01T07:53:35;101296.91;;;12.38;46.84
71643;BME280;59438;45.014;39.006;2023-04-01T07:56:06;101289.22;;;12.32;47.79
71643;BME280;59438;45.014;39.006;2023-04-01T07:58:43;101292.81;;;12.29;47.65
71643;BME280;59438;45.014;39.006;2023-04-01T08:01:20;101295.56;;;12.26;46.92
71643;BME280;59438;45.014;39.006;2023-04-01T08:04:12;101295.53;;;12.27;47.44
71643;BME280;59438;45.014;39.006;2023-04-01T08:06:45;101292.75;;;12.30;47.69
71643;BME280;59438;45.014;39.006;2023-04-01T08:09:25;101291.66;;;12.38;47.29
71643;BME280;59438;45.014;39.006;2023-04-01T08:12:02;101280.19;;;12.39;46.98
71643;BME280;59438;45.014;39.006;2023-04-01T08:14:36;101287.88;;;12.45;47.01
71643;BME280;59438;45.014;39.006;2023-04-01T08:17:11;101290.47;;;12.46;47.19
71643;BME280;59438;45.014;39.006;2023-04-01T08:19:59;101287.66;;;12.51;47.07
71643;BME280;59438;45.014;39.006;2023-04-01T08:22:34;101279.78;;;12.49;47.52
71643;BME280;59438;45.014;39.006;2023-04-01T08:25:05;101287.44;;;12.57;47.11
71643;BME280;59438;45.014;39.006;2023-04-01T08:27:36;101281.25;;;12.58;46.82
71643;BME280;59438;45.014;39.006;2023-04-01T08:30:06;101285.28;;;12.68;48.58
71643;BME280;59438;45.014;39.006;2023-04-01T08:32:43;101272.38;;;12.61;46.84
71643;BME280;59438;45.014;39.006;2023-04-01T08:35:24;101279.78;;;12.75;46.63
71643;BME280;59438;45.014;39.006;2023-04-01T08:37:54;101280.47;;;12.80;46.37
71643;BME280;59438;45.014;39.006;2023-04-01T08:41:08;101285.41;;;12.89;46.79
71643;BME280;59438;45.014;39.006;2023-04-01T08:43:59;101288.66;;;12.96;45.74
71643;BME280;59438;45.014;39.006;2023-04-01T08:46:56;101277.84;;;13.03;46.34
71643;BME280;59438;45.014;39.006;2023-04-01T08:49:44;101274.06;;;13.09;45.90
71643;BME280;59438;45.014;39.006;2023-04-01T08:52:36;101277.47;;;13.13;45.47
71643;BME280;59438;45.014;39.006;2023-04-01T08:58:31;101287.34;;;13.07;45.38
71643;BME280;59438;45.014;39.006;2023-04-01T09:01:11;101269.69;;;13.09;45.97
71643;BME280;59438;45.014;39.006;2023-04-01T09:04:01;101275.69;;;13.13;45.36
71643;BME280;59438;45.014;39.006;2023-04-01T09:06:40;101279.13;;;13.15;43.73
71643;BME280;59438;45.014;39.006;2023-04-01T09:12:26;101273.38;;;13.27;44.36
71643;BME280;59438;45.014;39.006;2023-04-01T09:15:37;101270.47;;;13.35;44.13
71643;BME280;59438;45.014;39.006;2023-04-01T09:18:15;101245.56;;;13.19;44.45
71643;BME280;59438;45.014;39.006;2023-04-01T09:21:06;101286.84;;;13.43;44.19
71643;BME280;59438;45.014;39.006;2023-04-01T09:23:54;101275.13;;;13.50;43.38
71643;BME280;59438;45.014;39.006;2023-04-01T09:26:48;101273.13;;;13.57;44.22
71643;BME280;59438;45.014;39.006;2023-04-01T09:32:34;101270.28;;;13.62;43.37
71643;BME280;59438;45.014;39.006;2023-04-01T09:35:20;101270.34;;;13.60;42.47
71643;BME280;59438;45.014;39.006;2023-04-01T09:37:55;101263.34;;;13.59;43.15
71643;BME280;59438;45.014;39.006;2023-04-01T09:40:35;101252.84;;;13.58;43.05
71643;BME280;59438;45.014;39.006;2023-04-01T09:43:22;101240.56;;;13.57;42.84
71643;BME280;59438;45.014;39.006;2023-04-01T09:46:06;101265.94;;;13.81;43.00
71643;BME280;59438;45.014;39.006;2023-04-01T09:51:57;101248.28;;;14.04;42.73
71643;BME280;59438;45.014;39.006;2023-04-01T09:54:46;101258.41;;;14.15;42.19
71643;BME280;59438;45.014;39.006;2023-04-01T10:00:36;101257.25;;;14.20;41.85
71643;BME280;59438;45.014;39.006;2023-04-01T10:06:27;101256.47;;;14.18;41.36
71643;BME280;59438;45.014;39.006;2023-04-01T10:15:32;101235.94;;;14.25;40.42
71643;BME280;59438;45.014;39.006;2023-04-01T10:21:29;101231.25;;;14.31;40.11
71643;BME280;59438;45.014;39.006;2023-04-01T10:27:29;101234.13;;;14.46;40.04
71643;BME280;59438;45.014;39.006;2023-04-01T10:33:19;101223.66;;;14.63;40.18
71643;BME280;59438;45.014;39.006;2023-04-01T10:39:33;101192.28;;;14.56;40.79
71643;BME280;59438;45.014;39.006;2023-04-01T10:48:14;101228.03;;;14.83;38.57
71643;BME280;59438;45.014;39.006;2023-04-01T10:50:59;101213.88;;;14.84;39.33
71643;BME280;59438;45.014;39.006;2023-04-01T10:56:43;101208.03;;;14.78;39.72
71643;BME280;59438;45.014;39.006;2023-04-01T11:06:05;101211.31;;;15.02;39.15
71643;BME280;59438;45.014;39.006;2023-04-01T11:09:03;101218.22;;;15.04;38.50
71643;BME280;59438;45.014;39.006;2023-04-01T11:11:55;101208.72;;;15.00;39.07
71643;BME280;59438;45.014;39.006;2023-04-01T11:20:32;101195.38;;;15.03;38.78
71643;BME280;59438;45.014;39.006;2023-04-01T11:23:20;101190.41;;;15.15;38.19
71643;BME280;59438;45.014;39.006;2023-04-01T11:26:02;101188.41;;;15.20;37.74
71643;BME280;59438;45.014;39.006;2023-04-01T11:29:11;101176.88;;;15.21;37.14
71643;BME280;59438;45.014;39.006;2023-04-01T11:31:50;101180.47;;;15.20;39.07
71643;BME280;59438;45.014;39.006;2023-04-01T11:34:32;101176.88;;;15.21;38.54
71643;BME280;59438;45.014;39.006;2023-04-01T11:37:12;101179.59;;;15.19;38.72
71643;BME280;59438;45.014;39.006;2023-04-01T11:40:02;101177.09;;;15.16;37.87
71643;BME280;59438;45.014;39.006;2023-04-01T11:42:40;101174.41;;;15.18;38.77
71643;BME280;59438;45.014;39.006;2023-04-01T11:45:21;101164.31;;;15.07;37.87
71643;BME280;59438;45.014;39.006;2023-04-01T11:48:03;101182.94;;;15.23;38.09
71643;BME280;59438;45.014;39.006;2023-04-01T11:50:45;101184.19;;;15.16;38.07
71643;BME280;59438;45.014;39.006;2023-04-01T11:53:26;101174.75;;;15.10;38.54
71643;BME280;59438;45.014;39.006;2023-04-01T11:56:02;101177.41;;;15.10;38.92
71643;BME280;59438;45.014;39.006;2023-04-01T11:58:58;101165.81;;;15.13;37.81
71643;BME280;59438;45.014;39.006;2023-04-01T12:01:40;101153.09;;;15.02;37.72
71643;BME280;59438;45.014;39.006;2023-04-01T12:04:38;101166.66;;;15.13;37.59
71643;BME280;59438;45.014;39.006;2023-04-01T12:07:18;101160.88;;;15.05;38.37
71643;BME280;59438;45.014;39.006;2023-04-01T12:09:52;101160.88;;;15.05;38.29
71643;BME280;59438;45.014;39.006;2023-04-01T12:12:32;101168.53;;;15.11;37.61
71643;BME280;59438;45.014;39.006;2023-04-01T12:15:15;101163.31;;;15.09;37.13
71643;BME280;59438;45.014;39.006;2023-04-01T12:17:49;101128.25;;;14.87;38.59
71643;BME280;59438;45.014;39.006;2023-04-01T12:20:34;101164.25;;;15.08;36.23
71643;BME280;59438;45.014;39.006;2023-04-01T12:23:12;101146.81;;;15.04;37.28
71643;BME280;59438;45.014;39.006;2023-04-01T12:29:08;101162.25;;;15.14;37.19
71643;BME280;59438;45.014;39.006;2023-04-01T12:31:50;101152.75;;;15.09;36.91
71643;BME280;59438;45.014;39.006;2023-04-01T12:34:45;101154.31;;;15.14;36.82
71643;BME280;59438;45.014;39.006;2023-04-01T12:37:18;101150.88;;;15.11;37.00
71643;BME280;59438;45.014;39.006;2023-04-01T12:40:15;101151.78;;;15.10;36.15
71643;BME280;59438;45.014;39.006;2023-04-01T12:42:58;101152.66;;;15.11;35.69
71643;BME280;59438;45.014;39.006;2023-04-01T12:45:30;101149.31;;;15.07;35.97
71643;BME280;59438;45.014;39.006;2023-04-01T12:48:18;101155.44;;;15.08;35.63
71643;BME280;59438;45.014;39.006;2023-04-01T12:51:03;101149.38;;;15.06;36.23
71643;BME280;59438;45.014;39.006;2023-04-01T12:54:02;101145.00;;;15.05;36.23
71643;BME280;59438;45.014;39.006;2023-04-01T12:56:42;101145.09;;;15.03;36.40
71643;BME280;59438;45.014;39.006;2023-04-01T12:59:27;101145.09;;;15.03;37.20
71643;BME280;59438;45.014;39.006;2023-04-01T13:02:10;101151.19;;;15.05;36.47
71643;BME280;59438;45.014;39.006;2023-04-01T13:05:01;101144.16;;;15.04;36.09
71643;BME280;59438;45.014;39.006;2023-04-01T13:07:48;101152.47;;;14.97;36.48
71643;BME280;59438;45.014;39.006;2023-04-01T13:16:07;101141.97;;;14.76;36.27
71643;BME280;59438;45.014;39.006;2023-04-01T13:18:50;101146.28;;;14.79;36.14
71643;BME280;59438;45.014;39.006;2023-04-01T13:21:23;101138.41;;;14.77;36.25
71643;BME280;59438;45.014;39.006;2023-04-01T13:24:00;101123.69;;;14.71;35.90
71643;BME280;59438;45.014;39.006;2023-04-01T13:26:34;101120.25;;;14.69;35.68
71643;BME280;59438;45.014;39.006;2023-04-01T13:29:06;101116.22;;;14.62;36.12
71643;BME280;59438;45.014;39.006;2023-04-01T13:31:55;101116.72;;;14.70;36.07
71643;BME280;59438;45.014;39.006;2023-04-01T13:34:44;101119.63;;;14.64;34.92
71643;BME280;59438;45.014;39.006;2023-04-01T13:37:25;101116.06;;;14.65;35.05
71643;BME280;59438;45.014;39.006;2023-04-01T13:40:02;101112.84;;;14.59;35.57
71643;BME280;59438;45.014;39.006;2023-04-01T13:42:41;101114.72;;;14.57;36.32
71643;BME280;59438;45.014;39.006;2023-04-01T13:45:14;101113.94;;;14.53;36.37
71643;BME280;59438;45.014;39.006;2023-04-01T13:51:24;101118.75;;;14.45;35.26
71643;BME280;59438;45.014;39.006;2023-04-01T13:54:14;101114.53;;;14.41;34.78
71643;BME280;59438;45.014;39.006;2023-04-01T13:56:53;101114.63;;;14.39;34.96
71643;BME280;59438;45.014;39.006;2023-04-01T14:02:50;101107.81;;;14.34;35.02
71643;BME280;59438;45.014;39.006;2023-04-01T14:05:54;101111.25;;;14.36;34.30
71643;BME280;59438;45.014;39.006;2023-04-01T14:08:36;101116.59;;;14.34;34.53
71643;BME280;59438;45.014;39.006;2023-04-01T14:11:15;101104.47;;;14.30;35.11
71643;BME280;59438;45.014;39.006;2023-04-01T14:13:50;101104.53;;;14.28;35.59
71643;BME280;59438;45.014;39.006;2023-04-01T14:16:53;101107.25;;;14.27;34.95
71643;BME280;59438;45.014;39.006;2023-04-01T14:19:39;101115.31;;;14.24;34.67
71643;BME280;59438;45.014;39.006;2023-04-01T14:22:18;101107.59;;;14.19;34.76
71643;BME280;59438;45.014;39.006;2023-04-01T14:25:06;101095.06;;;14.04;34.73
71643;BME280;59438;45.014;39.006;2023-04-01T14:27:51;101111.59;;;14.09;34.97
71643;BME280;59438;45.014;39.006;2023-04-01T14:30:35;101113.66;;;14.02;35.33
71643;BME280;59438;45.014;39.006;2023-04-01T14:33:15;101106.91;;;13.95;35.58
71643;BME280;59438;45.014;39.006;2023-04-01T14:35:53;101103.69;;;13.88;35.98
71643;BME280;59438;45.014;39.006;2023-04-01T14:38:39;101120.53;;;13.86;35.29
71643;BME280;59438;45.014;39.006;2023-04-01T14:41:28;101111.94;;;13.81;35.42
71643;BME280;59438;45.014;39.006;2023-04-01T14:44:18;101105.25;;;13.74;35.27
71643;BME280;59438;45.014;39.006;2023-04-01T14:47:21;101116.13;;;13.66;35.25